createdAt,value
2023-03-31T05:02:58.291Z,96.64
2023-03-31T05:05:28.743Z,95.95
2023-03-31T05:08:06.236Z,96.50
2023-03-31T05:10:36.492Z,96.37
2023-03-31T05:13:13.241Z,95.97
2023-03-31T05:15:45.311Z,96.53
2023-03-31T05:18:24.197Z,95.82
2023-03-31T05:21:01.211Z,96.44
2023-03-31T05:23:31.537Z,96.31
2023-03-31T05:26:08.473Z,96.00
2023-03-31T05:28:39.250Z,96.80
2023-03-31T05:31:19.245Z,96.33
2023-03-31T05:33:52.008Z,96.63
2023-03-31T05:36:30.305Z,95.89
2023-03-31T05:39:00.543Z,96.25
2023-03-31T05:41:37.337Z,96.18
2023-03-31T05:44:14.239Z,96.85
2023-03-31T05:46:51.302Z,96.87
2023-03-31T05:49:24.196Z,96.50
2023-03-31T05:52:01.296Z,96.69
2023-03-31T05:54:38.270Z,96.40
2023-03-31T05:57:15.311Z,96.01
2023-03-31T05:59:45.512Z,95.73
2023-03-31T06:02:23.419Z,96.76
2023-03-31T06:04:56.288Z,96.57
2023-03-31T06:07:34.341Z,96.40
2023-03-31T06:10:04.501Z,96.58
2023-03-31T06:12:42.337Z,96.47
2023-03-31T06:15:13.413Z,96.17
2023-03-31T06:17:50.320Z,95.97
2023-03-31T06:20:28.139Z,96.21
2023-03-31T06:23:06.365Z,96.31
2023-03-31T06:25:50.001Z,96.10
2023-03-31T06:28:28.315Z,95.39
2023-03-31T06:31:16.633Z,95.93
2023-03-31T06:33:47.646Z,95.85
2023-03-31T06:36:30.389Z,96.33
2023-03-31T06:39:07.307Z,95.97
2023-03-31T06:41:38.973Z,96.41
2023-03-31T06:44:15.351Z,96.05
2023-03-31T06:46:52.369Z,96.35
2023-03-31T06:49:22.737Z,96.39
2023-03-31T06:52:02.386Z,95.75
2023-03-31T06:54:32.797Z,95.98
2023-03-31T06:57:09.388Z,95.95
2023-03-31T06:59:46.553Z,96.23
2023-03-31T07:02:16.711Z,96.25
2023-03-31T07:04:53.342Z,95.50
2023-03-31T07:07:26.198Z,96.14
2023-03-31T07:10:03.398Z,95.55
2023-03-31T07:12:36.637Z,95.70
2023-03-31T07:15:14.397Z,96.02
2023-03-31T07:17:44.703Z,96.42
2023-03-31T07:20:24.397Z,96.29
2023-03-31T07:22:57.225Z,95.62
2023-03-31T07:25:34.396Z,96.52
2023-03-31T07:28:05.711Z,96.04
2023-03-31T07:30:43.358Z,96.75
2023-03-31T07:33:13.973Z,96.51
2023-03-31T07:36:00.237Z,96.22
2023-03-31T07:38:47.439Z,96.45
2023-03-31T07:41:21.106Z,96.83
2023-03-31T07:43:58.428Z,96.85
2023-03-31T07:46:31.272Z,96.68
2023-03-31T07:49:09.442Z,96.85
2023-03-31T07:51:39.600Z,96.68
2023-03-31T07:54:19.408Z,97.49
2023-03-31T07:56:49.500Z,97.16
2023-03-31T07:59:26.414Z,97.04
2023-03-31T08:01:56.684Z,96.84
2023-03-31T08:04:33.675Z,96.55
2023-03-31T08:07:04.481Z,97.44
2023-03-31T08:09:43.429Z,96.37
2023-03-31T08:12:13.764Z,96.26
2023-03-31T08:14:50.460Z,96.47
2023-03-31T08:17:20.786Z,96.81
2023-03-31T08:20:01.642Z,96.91
2023-03-31T08:22:34.037Z,96.39
2023-03-31T08:25:14.621Z,95.83
2023-03-31T08:27:44.807Z,96.25
2023-03-31T08:30:23.465Z,95.89
2023-03-31T08:33:00.512Z,97.00
2023-03-31T08:35:30.804Z,96.49
2023-03-31T08:38:08.510Z,96.30
2023-03-31T08:40:43.940Z,96.74
2023-03-31T08:43:28.590Z,96.85
2023-03-31T08:45:59.162Z,96.43
2023-03-31T08:48:39.733Z,96.27
2023-03-31T08:51:23.507Z,96.22
2023-03-31T08:54:11.535Z,96.47
2023-03-31T08:56:51.534Z,96.40
2023-03-31T08:59:39.511Z,96.44
2023-03-31T09:02:21.440Z,96.91
2023-03-31T09:05:26.548Z,97.10
2023-03-31T09:08:14.541Z,97.49
2023-03-31T09:10:56.570Z,97.11
2023-03-31T09:13:47.522Z,97.27
2023-03-31T09:16:27.591Z,97.39
2023-03-31T09:19:03.003Z,97.14
2023-03-31T09:21:44.520Z,96.48
2023-03-31T09:24:28.069Z,96.85
2023-03-31T09:27:03.464Z,95.41
2023-03-31T09:29:52.549Z,94.90
2023-03-31T09:32:25.910Z,94.82
2023-03-31T09:35:07.601Z,95.06
2023-03-31T09:37:37.795Z,94.53
2023-03-31T09:40:18.552Z,94.23
2023-03-31T09:42:51.099Z,92.57
2023-03-31T09:45:30.660Z,91.90
2023-03-31T09:48:06.933Z,92.32
2023-03-31T09:50:51.594Z,91.18
2023-03-31T09:53:29.257Z,89.76
2023-03-31T09:56:12.586Z,89.12
2023-03-31T09:58:46.315Z,89.61
2023-03-31T10:01:25.565Z,88.74
2023-03-31T10:03:58.514Z,88.43
2023-03-31T10:06:35.657Z,87.96
2023-03-31T10:09:08.011Z,87.47
2023-03-31T10:11:44.590Z,87.68
2023-03-31T10:14:18.101Z,86.70
2023-03-31T10:17:02.646Z,86.64
2023-03-31T10:19:44.683Z,85.03
2023-03-31T10:22:19.042Z,84.03
2023-03-31T10:24:57.636Z,84.03
2023-03-31T10:27:31.288Z,82.08
2023-03-31T10:30:10.660Z,82.11
2023-03-31T10:32:48.081Z,81.03
2023-03-31T10:35:35.654Z,80.47
2023-03-31T10:38:09.930Z,80.92
2023-03-31T10:40:47.707Z,81.03
2023-03-31T10:43:27.680Z,81.22
2023-03-31T10:46:00.242Z,80.89
2023-03-31T10:48:44.724Z,81.09
2023-03-31T10:51:19.740Z,81.84
2023-03-31T10:53:58.770Z,80.49
2023-03-31T10:56:42.042Z,80.93
2023-03-31T10:59:46.822Z,80.52
2023-03-31T11:02:54.646Z,81.07
2023-03-31T11:05:41.670Z,81.27
2023-03-31T11:08:44.176Z,81.78
2023-03-31T11:11:41.689Z,81.37
2023-03-31T11:14:19.492Z,82.35
2023-03-31T11:17:04.742Z,83.23
2023-03-31T11:19:54.709Z,83.66
2023-03-31T11:22:34.555Z,83.87
2023-03-31T11:25:35.694Z,85.55
2023-03-31T11:28:33.393Z,86.02
2023-03-31T11:31:30.773Z,85.85
2023-03-31T11:34:18.454Z,85.84
2023-03-31T11:37:31.783Z,86.17
2023-03-31T11:40:26.290Z,87.53
2023-03-31T11:43:08.752Z,87.57
2023-03-31T11:45:44.179Z,88.61
2023-03-31T11:48:28.780Z,87.53
2023-03-31T11:51:01.046Z,87.41
2023-03-31T11:53:45.786Z,87.20
2023-03-31T11:56:20.141Z,86.32
2023-03-31T11:59:02.887Z,86.00
2023-03-31T12:01:44.035Z,85.67
2023-03-31T12:04:36.787Z,85.48
2023-03-31T12:07:23.766Z,84.08
2023-03-31T12:10:06.154Z,83.48
2023-03-31T12:12:54.788Z,83.80
2023-03-31T12:15:30.588Z,83.38
2023-03-31T12:18:13.126Z,83.83
2023-03-31T12:20:48.367Z,82.77
2023-03-31T12:23:31.788Z,83.30
2023-03-31T12:26:17.813Z,83.81
2023-03-31T12:29:01.358Z,83.84
2023-03-31T12:31:41.823Z,83.74
2023-03-31T12:34:17.871Z,84.13
2023-03-31T12:37:20.009Z,83.49
2023-03-31T12:40:08.202Z,83.88
2023-03-31T12:43:23.862Z,83.59
2023-03-31T12:46:07.553Z,84.20
2023-03-31T12:49:08.838Z,84.22
2023-03-31T12:52:13.893Z,85.82
2023-03-31T12:55:13.072Z,84.95
2023-03-31T12:57:49.895Z,85.01
2023-03-31T13:00:30.332Z,84.67
